Time;durP1;ratioP1;P1;durP2;ratioP2;P2;SDS_P1;SDS_P2;PMS_P1;PMS_P2;Temp;Humidity;BMP_temperature;BMP_pressure;BME280_temperature;BME280_humidity;BME280_pressure;Samples;Min_cycle;Max_cycle;Signal;HPM_P1;HPM_P2
2022/09/23 00:00:32;;;;;;;8.43;6.07;;;;;;;;;;13019737;22;20077;-79
2022/09/23 00:05:33;;;;;;;7.55;6.72;;;;;;;;;;12989885;22;20040;-80
2022/09/23 00:10:36;;;;;;;6.88;6.03;;;;;;;;;;12997215;22;20076;-82
2022/09/23 00:15:37;;;;;;;6.63;5.93;;;;;;;;;;12974111;22;20004;-80
2022/09/23 00:20:39;;;;;;;7.78;6.40;;;;;;;;;;12983729;22;20007;-81
2022/09/23 00:25:39;;;;;;;7.35;6.22;;;;;;;;;;12987233;22;20016;-80
2022/09/23 00:30:43;;;;;;;6.10;5.20;;;;;;;;;;13026000;22;20023;-82
2022/09/23 00:35:43;;;;;;;6.70;5.88;;;;;;;;;;12980050;22;20278;-81
2022/09/23 00:40:48;;;;;;;6.47;5.00;;;;;;;;;;12946547;22;20020;-82
2022/09/23 00:46:05;;;;;;;8.55;5.70;;;;;;;;;;12864894;22;20005;-82
2022/09/23 00:51:07;;;;;;;6.43;5.70;;;;;;;;;;12866881;22;20017;-77
2022/09/23 00:56:10;;;;;;;8.18;5.72;;;;;;;;;;12832458;22;20059;-78
2022/09/23 01:01:13;;;;;;;7.07;5.25;;;;;;;;;;12850011;23;20004;-80
2022/09/23 01:06:16;;;;;;;6.88;5.38;;;;;;;;;;12848482;23;20338;-80
2022/09/23 01:11:27;;;;;;;5.72;4.97;;;;;;;;;;12834571;23;20104;-78
2022/09/23 01:16:28;;;;;;;7.13;5.72;;;;;;;;;;12860160;23;20012;-83
2022/09/23 01:22:07;;;;;;;7.30;5.80;;;;;;;;;;12897041;23;20381;-84
2022/09/23 01:27:13;;;;;;;6.65;5.60;;;;;;;;;;12650183;23;20274;-82
2022/09/23 01:32:16;;;;;;;7.28;5.35;;;;;;;;;;12845933;23;20017;-80
2022/09/23 01:37:52;;;;;;;5.60;5.05;;;;;;;;;;12896801;23;20126;-80
2022/09/23 01:42:55;;;;;;;5.80;5.10;;;;;;;;;;12763702;23;20020;-84
2022/09/23 01:47:59;;;;;;;6.00;5.40;;;;;;;;;;12879815;23;20036;-79
2022/09/23 01:53:10;;;;;;;6.82;5.68;;;;;;;;;;12893837;22;20013;-82
2022/09/23 01:58:22;;;;;;;6.43;4.82;;;;;;;;;;12899726;22;20000;-82
2022/09/23 02:03:26;;;;;;;;;;;;;;;;;;12905596;23;20017;-81
2022/09/23 02:08:32;;;;;;;6.93;5.15;;;;;;;;;;12872384;23;20371;-83
2022/09/23 02:13:38;;;;;;;8.40;5.15;;;;;;;;;;12852614;23;20039;-81
2022/09/23 02:18:44;;;;;;;6.05;5.35;;;;;;;;;;12868023;23;20369;-81
2022/09/23 02:23:49;;;;;;;5.95;4.82;;;;;;;;;;12867337;23;20015;-82
2022/09/23 02:28:49;;;;;;;5.28;4.75;;;;;;;;;;12867005;23;20027;-80
2022/09/23 02:33:54;;;;;;;7.20;4.90;;;;;;;;;;12862411;23;20015;-81
2022/09/23 02:38:56;;;;;;;6.10;5.30;;;;;;;;;;12874037;23;20023;-82
2022/09/23 02:44:17;;;;;;;6.13;4.95;;;;;;;;;;12897078;22;20013;-82
2022/09/23 02:49:22;;;;;;;6.03;4.60;;;;;;;;;;12895652;22;20012;-83
2022/09/23 02:54:24;;;;;;;5.28;4.78;;;;;;;;;;12887004;22;20056;-83
2022/09/23 02:59:25;;;;;;;4.50;4.10;;;;;;;;;;12865840;23;20024;-79
2022/09/23 03:04:30;;;;;;;5.65;5.05;;;;;;;;;;12885636;22;20005;-81
2022/09/23 03:09:33;;;;;;;5.22;4.72;;;;;;;;;;12865748;22;20032;-82
2022/09/23 03:14:40;;;;;;;5.68;4.82;;;;;;;;;;12866327;23;20513;-82
2022/09/23 03:19:48;;;;;;;6.13;5.10;;;;;;;;;;12870726;23;20095;-81
2022/09/23 03:24:49;;;;;;;5.40;4.38;;;;;;;;;;12857276;23;20031;-81
2022/09/23 03:29:52;;;;;;;6.68;5.32;;;;;;;;;;12871345;23;20028;-82
2022/09/23 03:34:53;;;;;;;5.43;4.80;;;;;;;;;;12867766;23;20916;-80
2022/09/23 03:39:58;;;;;;;5.78;4.40;;;;;;;;;;12877140;23;20017;-81
2022/09/23 03:45:00;;;;;;;6.80;5.00;;;;;;;;;;12872452;22;20428;-83
2022/09/23 03:50:00;;;;;;;5.70;4.57;;;;;;;;;;12838569;23;20028;-79
2022/09/23 03:55:00;;;;;;;5.97;5.03;;;;;;;;;;12856709;23;20067;-80
2022/09/23 04:00:02;;;;;;;5.75;5.15;;;;;;;;;;12856306;23;20023;-80
2022/09/23 04:05:12;;;;;;;5.38;4.82;;;;;;;;;;12862613;23;20067;-80
2022/09/23 04:10:12;;;;;;;7.00;5.45;;;;;;;;;;12878745;23;20005;-80
2022/09/23 04:15:14;;;;;;;5.53;5.03;;;;;;;;;;12872257;23;20052;-81
2022/09/23 04:20:16;;;;;;;5.68;4.90;;;;;;;;;;12867985;23;20270;-80
2022/09/23 04:25:16;;;;;;;6.20;5.60;;;;;;;;;;12889677;22;20003;-80
2022/09/23 04:30:17;;;;;;;7.77;6.00;;;;;;;;;;12916611;23;20034;-83
2022/09/23 04:35:17;;;;;;;5.80;5.05;;;;;;;;;;12886544;22;20559;-79
2022/09/23 04:40:18;;;;;;;6.67;5.13;;;;;;;;;;12862441;23;20016;-81
2022/09/23 04:45:18;;;;;;;5.78;5.20;;;;;;;;;;12865226;23;20407;-80
2022/09/23 04:50:19;;;;;;;6.70;5.20;;;;;;;;;;12866170;23;20020;-80
2022/09/23 04:55:20;;;;;;;5.95;5.40;;;;;;;;;;12874712;23;20235;-80
2022/09/23 05:00:22;;;;;;;7.57;5.28;;;;;;;;;;12876774;23;20480;-80
2022/09/23 05:05:23;;;;;;;6.43;5.10;;;;;;;;;;12849168;23;20044;-82
2022/09/23 05:10:23;;;;;;;8.32;6.32;;;;;;;;;;12875958;23;20317;-82
2022/09/23 05:15:23;;;;;;;8.57;6.80;;;;;;;;;;12847320;23;20016;-80
2022/09/23 05:20:24;;;;;;;6.93;5.90;;;;;;;;;;12862635;23;20017;-77
2022/09/23 05:25:24;;;;;;;6.18;5.57;;;;;;;;;;12857497;23;20405;-78
2022/09/23 05:30:24;;;;;;;8.10;6.32;;;;;;;;;;12859371;23;20436;-78
2022/09/23 05:35:25;;;;;;;9.40;7.03;;;;;;;;;;12859912;23;20013;-77
2022/09/23 05:40:25;;;;;;;6.53;5.70;;;;;;;;;;12832568;23;20012;-77
2022/09/23 05:45:25;;;;;;;8.40;7.07;;;;;;;;;;12859827;23;20416;-78
2022/09/23 05:50:27;;;;;;;8.10;6.20;;;;;;;;;;12830115;23;20433;-77
2022/09/23 05:55:28;;;;;;;8.38;6.78;;;;;;;;;;12856351;23;20336;-75
2022/09/23 06:00:28;;;;;;;10.15;7.60;;;;;;;;;;12854476;23;20016;-76
2022/09/23 06:05:29;;;;;;;9.88;8.18;;;;;;;;;;12826651;23;20044;-78
2022/09/23 06:10:30;;;;;;;9.75;7.35;;;;;;;;;;12854953;22;20034;-74
2022/09/23 06:15:31;;;;;;;10.15;7.05;;;;;;;;;;12852792;23;20043;-77
2022/09/23 06:20:32;;;;;;;10.35;7.07;;;;;;;;;;12854029;23;20009;-76
2022/09/23 06:25:32;;;;;;;9.00;7.57;;;;;;;;;;12852716;23;20447;-75
2022/09/23 06:30:33;;;;;;;8.85;6.82;;;;;;;;;;12826134;23;20096;-75
2022/09/23 06:35:33;;;;;;;6.95;6.15;;;;;;;;;;12829260;23;20017;-74
2022/09/23 06:40:34;;;;;;;9.47;7.93;;;;;;;;;;12853098;23;20108;-74
2022/09/23 06:45:34;;;;;;;9.70;7.67;;;;;;;;;;12853775;22;20299;-77
2022/09/23 06:50:35;;;;;;;9.93;7.45;;;;;;;;;;12853859;23;20364;-77
2022/09/23 06:55:35;;;;;;;7.45;6.63;;;;;;;;;;12852481;23;20012;-75
2022/09/23 07:00:36;;;;;;;9.80;7.60;;;;;;;;;;12854203;23;20008;-75
2022/09/23 07:05:39;;;;;;;12.07;7.57;;;;;;;;;;12828974;23;20394;-77
2022/09/23 07:10:40;;;;;;;7.35;6.65;;;;;;;;;;12851519;23;20027;-78
2022/09/23 07:15:42;;;;;;;7.60;6.82;;;;;;;;;;12852115;23;20310;-76
2022/09/23 07:20:42;;;;;;;7.70;6.53;;;;;;;;;;12852812;23;20329;-77
2022/09/23 07:25:45;;;;;;;7.50;6.27;;;;;;;;;;12851391;23;20019;-75
2022/09/23 07:30:46;;;;;;;6.43;5.82;;;;;;;;;;12851153;23;20025;-79
2022/09/23 07:35:46;;;;;;;7.25;6.22;;;;;;;;;;12859653;23;20012;-78
2022/09/23 07:40:47;;;;;;;9.30;6.40;;;;;;;;;;12867309;23;20012;-80
2022/09/23 07:45:47;;;;;;;6.88;6.18;;;;;;;;;;12897960;23;20283;-76
2022/09/23 07:50:48;;;;;;;7.80;6.43;;;;;;;;;;12910440;23;20353;-79
2022/09/23 07:55:53;;;;;;;7.45;6.65;;;;;;;;;;12883123;23;20063;-75
2022/09/23 08:00:53;;;;;;;7.70;6.90;;;;;;;;;;12868421;23;20013;-79
2022/09/23 08:06:02;;;;;;;9.15;7.00;;;;;;;;;;12824072;23;20008;-76
2022/09/23 08:11:03;;;;;;;9.02;7.13;;;;;;;;;;12876576;23;20079;-75
2022/09/23 08:16:04;;;;;;;8.70;7.53;;;;;;;;;;12855167;23;20024;-81
2022/09/23 08:21:04;;;;;;;8.80;6.80;;;;;;;;;;12874135;23;20020;-76
2022/09/23 08:26:05;;;;;;;9.85;7.88;;;;;;;;;;12893921;22;19993;-79
2022/09/23 08:31:07;;;;;;;7.65;6.85;;;;;;;;;;12876453;23;20079;-77
2022/09/23 08:36:07;;;;;;;7.70;6.03;;;;;;;;;;12883023;23;20009;-78
2022/09/23 08:41:26;;;;;;;7.57;6.88;;;;;;;;;;12837281;23;20021;-78
2022/09/23 08:46:31;;;;;;;8.00;6.80;;;;;;;;;;12860047;22;20013;-78
2022/09/23 08:51:40;;;;;;;9.05;7.43;;;;;;;;;;12864792;22;20092;-80
2022/09/23 08:56:42;;;;;;;7.93;6.60;;;;;;;;;;12861497;23;20036;-79
2022/09/23 09:01:43;;;;;;;8.32;6.10;;;;;;;;;;12882341;23;20013;-78
2022/09/23 09:06:46;;;;;;;6.18;5.20;;;;;;;;;;12882592;23;20087;-81
2022/09/23 09:11:48;;;;;;;4.93;4.43;;;;;;;;;;12859110;23;20051;-80
2022/09/23 09:17:23;;;;;;;6.15;5.55;;;;;;;;;;12863986;23;20075;-79
2022/09/23 09:22:33;;;;;;;6.75;5.38;;;;;;;;;;12810372;23;20015;-78
2022/09/23 09:27:37;;;;;;;6.25;5.60;;;;;;;;;;12856608;23;20012;-78
2022/09/23 09:32:46;;;;;;;5.97;4.60;;;;;;;;;;12856123;23;20425;-78
2022/09/23 09:37:46;;;;;;;4.80;4.30;;;;;;;;;;12880044;22;20012;-77
2022/09/23 09:42:48;;;;;;;5.88;4.72;;;;;;;;;;12856466;23;20013;-79
2022/09/23 09:48:09;;;;;;;4.47;4.00;;;;;;;;;;12832427;23;20012;-79
2022/09/23 09:53:14;;;;;;;3.65;2.90;;;;;;;;;;12832704;23;20020;-80
2022/09/23 09:58:15;;;;;;;3.20;2.90;;;;;;;;;;12859782;22;20013;-81
2022/09/23 10:03:30;;;;;;;3.63;2.60;;;;;;;;;;12857690;23;20454;-78
2022/09/23 10:08:34;;;;;;;4.32;3.28;;;;;;;;;;12829745;23;20021;-79
2022/09/23 10:13:35;;;;;;;3.30;3.00;;;;;;;;;;12858874;22;20470;-81
2022/09/23 10:18:47;;;;;;;3.88;3.13;;;;;;;;;;12873347;23;20097;-84
2022/09/23 10:23:51;;;;;;;3.40;3.10;;;;;;;;;;12842923;23;20020;-82
2022/09/23 10:28:54;;;;;;;3.42;2.80;;;;;;;;;;12855690;22;20500;-82
2022/09/23 10:33:58;;;;;;;3.10;2.75;;;;;;;;;;12846111;23;20360;-82
2022/09/23 10:49:50;;;;;;;2.95;2.30;;;;;;;;;;12856560;22;20020;-79
2022/09/23 10:54:51;;;;;;;2.92;2.22;;;;;;;;;;12861253;23;20846;-81
2022/09/23 10:59:59;;;;;;;2.07;1.90;;;;;;;;;;12844441;22;20012;-80
2022/09/23 11:05:03;;;;;;;2.38;2.17;;;;;;;;;;12865410;23;20246;-81
2022/09/23 11:10:22;;;;;;;2.10;1.90;;;;;;;;;;12870057;23;20027;-80
2022/09/23 11:15:32;;;;;;;1.98;1.80;;;;;;;;;;12873703;22;20000;-79
2022/09/23 11:20:33;;;;;;;2.60;2.40;;;;;;;;;;12909286;22;20051;-78
2022/09/23 11:25:40;;;;;;;2.13;1.93;;;;;;;;;;12876611;23;20051;-79
2022/09/23 11:31:03;;;;;;;2.05;1.95;;;;;;;;;;12906406;23;20275;-81
2022/09/23 11:36:07;;;;;;;2.00;1.77;;;;;;;;;;12889118;23;20031;-80
2022/09/23 11:41:17;;;;;;;2.50;2.10;;;;;;;;;;12875250;23;20024;-80
2022/09/23 11:46:36;;;;;;;2.08;1.77;;;;;;;;;;12907091;22;20060;-79
2022/09/23 11:51:55;;;;;;;1.98;1.88;;;;;;;;;;12898152;23;20111;-81
2022/09/23 11:56:58;;;;;;;1.80;1.70;;;;;;;;;;12883172;23;20036;-82
2022/09/23 12:02:18;;;;;;;1.98;1.77;;;;;;;;;;12875577;23;20016;-80
2022/09/23 12:07:23;;;;;;;2.28;2.08;;;;;;;;;;12878681;23;20020;-80
2022/09/23 12:12:28;;;;;;;2.13;1.70;;;;;;;;;;12884757;23;20028;-77
2022/09/23 12:17:38;;;;;;;2.58;1.80;;;;;;;;;;12861608;23;20778;-80
2022/09/23 12:22:46;;;;;;;2.60;1.80;;;;;;;;;;12866500;22;20412;-80
2022/09/23 12:27:54;;;;;;;2.20;1.67;;;;;;;;;;12864821;22;20031;-82
2022/09/23 12:33:15;;;;;;;2.20;1.92;;;;;;;;;;12860259;23;20016;-80
2022/09/23 12:38:21;;;;;;;1.98;1.73;;;;;;;;;;12865441;22;20421;-80
2022/09/23 12:43:33;;;;;;;2.17;1.75;;;;;;;;;;12860613;23;20424;-81
2022/09/23 12:49:06;;;;;;;2.50;2.30;;;;;;;;;;12860804;23;20024;-78
2022/09/23 12:54:22;;;;;;;2.20;1.80;;;;;;;;;;12766891;23;20040;-80
2022/09/23 12:59:24;;;;;;;2.78;1.83;;;;;;;;;;12843137;22;20020;-78
2022/09/23 13:09:48;;;;;;;2.35;1.90;;;;;;;;;;12854986;23;20317;-78
2022/09/23 13:14:50;;;;;;;2.10;1.90;;;;;;;;;;12856775;23;20417;-78
2022/09/23 13:19:58;;;;;;;2.78;1.63;;;;;;;;;;12829717;23;20019;-78
2022/09/23 13:25:00;;;;;;;2.55;1.65;;;;;;;;;;12829713;23;20103;-77
2022/09/23 13:30:02;;;;;;;2.47;1.90;;;;;;;;;;12862029;23;20020;-75
2022/09/23 13:35:12;;;;;;;3.88;2.95;;;;;;;;;;12833658;22;20071;-77
2022/09/23 13:40:22;;;;;;;2.50;2.22;;;;;;;;;;12843371;23;20032;-78
2022/09/23 13:45:24;;;;;;;2.30;2.10;;;;;;;;;;12876452;23;20058;-79
2022/09/23 13:50:25;;;;;;;2.40;1.90;;;;;;;;;;12835713;23;20040;-77
2022/09/23 13:55:36;;;;;;;2.63;2.13;;;;;;;;;;12859019;23;20040;-78
2022/09/23 14:00:36;;;;;;;1.90;1.67;;;;;;;;;;12857432;22;20013;-77
2022/09/23 14:05:37;;;;;;;2.00;1.80;;;;;;;;;;12852937;23;20420;-77
2022/09/23 14:10:41;;;;;;;1.85;1.73;;;;;;;;;;12855342;22;20020;-77
2022/09/23 14:15:42;;;;;;;3.40;2.00;;;;;;;;;;12857055;22;20005;-78
2022/09/23 14:20:47;;;;;;;2.10;1.90;;;;;;;;;;12866187;23;20051;-78
2022/09/23 14:25:49;;;;;;;3.33;2.60;;;;;;;;;;12868908;22;20126;-79
2022/09/23 14:30:51;;;;;;;2.37;2.17;;;;;;;;;;12807622;23;20025;-80
2022/09/23 14:35:54;;;;;;;3.22;2.33;;;;;;;;;;12859192;23;20020;-78
2022/09/23 14:41:14;;;;;;;3.28;2.05;;;;;;;;;;12831520;23;20020;-81
2022/09/23 14:46:16;;;;;;;3.47;2.58;;;;;;;;;;12830264;23;20086;-81
2022/09/23 14:51:17;;;;;;;3.17;2.40;;;;;;;;;;12865573;23;20052;-79
2022/09/23 14:56:19;;;;;;;2.60;2.20;;;;;;;;;;12868457;23;20000;-77
2022/09/23 15:01:31;;;;;;;5.30;2.60;;;;;;;;;;12858269;23;20067;-79
2022/09/23 15:06:35;;;;;;;2.83;2.40;;;;;;;;;;12870695;22;20017;-79
2022/09/23 15:11:37;;;;;;;2.63;2.40;;;;;;;;;;12852044;23;20020;-77
2022/09/23 15:16:38;;;;;;;2.17;1.98;;;;;;;;;;12897971;23;20017;-78
2022/09/23 15:21:42;;;;;;;2.28;2.10;;;;;;;;;;12890749;23;20055;-78
2022/09/23 15:26:47;;;;;;;2.35;2.10;;;;;;;;;;12891292;23;20001;-78
2022/09/23 15:31:49;;;;;;;3.00;2.33;;;;;;;;;;12837087;23;20079;-75
2022/09/23 15:36:49;;;;;;;2.80;2.40;;;;;;;;;;12867198;23;20401;-76
2022/09/23 15:41:50;;;;;;;3.10;2.30;;;;;;;;;;12860099;23;20020;-77
2022/09/23 15:46:50;;;;;;;2.57;2.30;;;;;;;;;;12854884;23;20075;-79
2022/09/23 15:51:52;;;;;;;3.00;2.67;;;;;;;;;;12851842;23;20330;-75
2022/09/23 15:56:52;;;;;;;2.78;2.30;;;;;;;;;;12801475;23;20095;-75
2022/09/23 16:01:54;;;;;;;2.40;2.20;;;;;;;;;;12825650;23;20040;-74
2022/09/23 16:06:57;;;;;;;4.63;3.83;;;;;;;;;;12852708;23;20020;-75
2022/09/23 16:11:59;;;;;;;4.28;3.88;;;;;;;;;;12829445;23;20016;-75
2022/09/23 16:17:02;;;;;;;3.83;3.35;;;;;;;;;;12855782;23;20308;-74
2022/09/23 16:22:02;;;;;;;5.72;2.88;;;;;;;;;;12828817;23;20092;-75
2022/09/23 16:27:06;;;;;;;3.20;2.33;;;;;;;;;;12855823;23;20417;-74
2022/09/23 16:32:06;;;;;;;2.95;2.65;;;;;;;;;;12855301;23;20393;-76
2022/09/23 16:37:10;;;;;;;3.30;3.00;;;;;;;;;;12828577;23;20016;-75
2022/09/23 16:42:11;;;;;;;4.18;3.10;;;;;;;;;;12855048;23;20425;-73
2022/09/23 16:47:11;;;;;;;3.70;3.30;;;;;;;;;;12828560;23;20017;-81
2022/09/23 16:52:12;;;;;;;20.70;14.80;;;;;;;;;;12829188;23;20016;-77
2022/09/23 16:57:12;;;;;;;7.53;5.50;;;;;;;;;;12855655;23;20345;-78
2022/09/23 17:07:32;;;;;;;4.22;3.72;;;;;;;;;;12853128;23;20340;-78
2022/09/23 17:12:34;;;;;;;4.40;4.00;;;;;;;;;;12855132;23;20027;-79
2022/09/23 17:17:37;;;;;;;4.55;4.15;;;;;;;;;;12856810;23;20028;-79
2022/09/23 17:22:38;;;;;;;6.68;5.05;;;;;;;;;;12856582;23;20391;-78
2022/09/23 17:27:38;;;;;;;6.63;5.90;;;;;;;;;;12829709;23;20074;-77
2022/09/23 17:32:40;;;;;;;6.63;5.78;;;;;;;;;;12827632;22;20091;-79
2022/09/23 17:37:43;;;;;;;6.80;6.10;;;;;;;;;;12855630;23;20020;-76
2022/09/23 17:42:43;;;;;;;8.77;6.07;;;;;;;;;;12856733;22;20100;-78
2022/09/23 17:47:53;;;;;;;8.70;6.38;;;;;;;;;;12830671;23;20044;-80
2022/09/23 17:52:54;;;;;;;7.75;6.60;;;;;;;;;;12855788;23;20090;-81
2022/09/23 17:57:54;;;;;;;7.18;6.47;;;;;;;;;;12833480;23;20016;-83
2022/09/23 18:02:54;;;;;;;8.13;7.33;;;;;;;;;;12854139;23;20328;-75
2022/09/23 18:07:55;;;;;;;8.55;7.65;;;;;;;;;;12852860;23;20035;-77
2022/09/23 18:12:55;;;;;;;9.83;8.80;;;;;;;;;;12825385;23;20024;-76
2022/09/23 18:17:55;;;;;;;9.90;8.35;;;;;;;;;;12853033;23;20255;-79
2022/09/23 18:22:56;;;;;;;11.55;9.50;;;;;;;;;;12828797;23;20070;-77
2022/09/23 18:27:56;;;;;;;9.73;8.48;;;;;;;;;;12856541;23;20398;-79
2022/09/23 18:32:58;;;;;;;9.43;8.23;;;;;;;;;;12855770;23;20044;-79
2022/09/23 18:37:59;;;;;;;10.27;8.07;;;;;;;;;;12853939;22;20016;-80
2022/09/23 18:42:59;;;;;;;10.07;7.87;;;;;;;;;;12851143;23;20020;-78
2022/09/23 18:53:20;;;;;;;7.90;7.13;;;;;;;;;;12854727;23;20019;-80
2022/09/23 18:58:21;;;;;;;9.73;7.57;;;;;;;;;;12863808;23;20486;-76
2022/09/23 19:03:22;;;;;;;7.57;6.78;;;;;;;;;;12828340;23;20259;-79
2022/09/23 19:08:23;;;;;;;8.17;6.47;;;;;;;;;;12856532;23;20052;-78
2022/09/23 19:13:24;;;;;;;7.03;6.32;;;;;;;;;;12858249;23;20345;-81
2022/09/23 19:18:24;;;;;;;6.68;6.03;;;;;;;;;;12861256;23;20107;-80
2022/09/23 19:23:30;;;;;;;7.03;5.97;;;;;;;;;;12859707;23;20016;-80
2022/09/23 19:28:31;;;;;;;6.22;5.63;;;;;;;;;;12862495;22;20091;-80
2022/09/23 19:33:31;;;;;;;6.68;5.97;;;;;;;;;;12858545;23;20005;-79
2022/09/23 19:38:32;;;;;;;8.17;7.37;;;;;;;;;;12853132;22;20017;-81
2022/09/23 19:43:36;;;;;;;8.90;6.43;;;;;;;;;;12846055;23;20813;-83
2022/09/23 19:48:37;;;;;;;6.95;6.13;;;;;;;;;;12866260;23;20091;-81
2022/09/23 19:53:40;;;;;;;8.73;6.80;;;;;;;;;;12867208;22;20123;-84
2022/09/23 19:58:41;;;;;;;9.50;7.45;;;;;;;;;;12840768;23;20251;-81
2022/09/23 20:03:42;;;;;;;8.07;7.03;;;;;;;;;;12865501;23;20084;-82
2022/09/23 20:08:44;;;;;;;9.00;7.13;;;;;;;;;;12866093;23;20055;-82
2022/09/23 20:13:48;;;;;;;10.00;7.25;;;;;;;;;;12868420;22;20424;-82
2022/09/23 20:18:50;;;;;;;12.18;9.38;;;;;;;;;;12839389;23;20339;-81
2022/09/23 20:23:52;;;;;;;11.85;8.98;;;;;;;;;;12866570;22;20015;-82
2022/09/23 20:28:54;;;;;;;16.15;11.60;;;;;;;;;;12812707;23;20349;-81
2022/09/23 20:33:57;;;;;;;16.48;12.48;;;;;;;;;;12877588;22;20028;-82
2022/09/23 20:38:59;;;;;;;13.95;11.90;;;;;;;;;;12881124;23;20015;-81
2022/09/23 20:43:59;;;;;;;15.23;12.27;;;;;;;;;;12895870;23;19993;-83
2022/09/23 20:49:00;;;;;;;12.45;10.82;;;;;;;;;;12905148;22;20029;-83
2022/09/23 20:54:01;;;;;;;12.60;10.23;;;;;;;;;;12875230;23;20019;-82
2022/09/23 20:59:02;;;;;;;12.15;10.07;;;;;;;;;;12831136;23;20059;-83
2022/09/23 21:04:04;;;;;;;9.43;8.43;;;;;;;;;;12847664;23;20044;-83
2022/09/23 21:09:06;;;;;;;10.63;8.13;;;;;;;;;;12837294;22;20029;-82
2022/09/23 21:14:07;;;;;;;8.45;7.55;;;;;;;;;;12862731;23;20329;-82
2022/09/23 21:19:07;;;;;;;9.63;8.57;;;;;;;;;;12865255;23;20011;-82
2022/09/23 21:24:07;;;;;;;8.10;7.30;;;;;;;;;;12870240;23;20083;-83
2022/09/23 21:29:08;;;;;;;8.32;7.43;;;;;;;;;;12868458;23;20017;-80
2022/09/23 21:34:13;;;;;;;8.75;7.80;;;;;;;;;;12867085;23;20023;-79
2022/09/23 21:39:13;;;;;;;8.30;6.80;;;;;;;;;;12860006;23;20456;-80
2022/09/23 21:44:14;;;;;;;8.07;7.22;;;;;;;;;;12861521;23;20078;-82
2022/09/23 21:49:15;;;;;;;7.28;6.57;;;;;;;;;;12858095;22;20021;-80
2022/09/23 21:54:15;;;;;;;10.37;6.27;;;;;;;;;;12856191;22;20005;-79
2022/09/23 21:59:16;;;;;;;9.15;6.55;;;;;;;;;;12829854;22;20075;-78
2022/09/23 22:04:19;;;;;;;7.37;6.53;;;;;;;;;;12831429;23;20017;-82
2022/09/23 22:09:19;;;;;;;;;;;;;;;;;;12877269;23;20016;-83
2022/09/23 22:14:23;;;;;;;7.43;5.93;;;;;;;;;;12882113;22;19899;-82
2022/09/23 22:19:25;;;;;;;6.90;6.22;;;;;;;;;;12861253;22;20009;-83
2022/09/23 22:24:27;;;;;;;6.78;6.13;;;;;;;;;;12914164;22;20015;-83
2022/09/23 22:34:48;;;;;;;6.65;5.90;;;;;;;;;;12914496;22;20001;-83
2022/09/23 22:39:49;;;;;;;8.30;7.47;;;;;;;;;;12889165;22;20013;-83
2022/09/23 22:44:49;;;;;;;8.33;7.07;;;;;;;;;;12889463;22;20023;-82
2022/09/23 22:49:53;;;;;;;8.40;6.82;;;;;;;;;;12916425;22;20007;-83
2022/09/23 22:55:06;;;;;;;;;;;;;;;;;;;;;
2022/09/23 23:00:28;;;;;;;7.60;6.83;;;;;;;;;;12910581;22;20016;-83
2022/09/23 23:10:57;;;;;;;7.72;6.90;;;;;;;;;;12894274;22;20019;-82
2022/09/23 23:16:02;;;;;;;7.85;6.75;;;;;;;;;;12946480;22;20023;-84
2022/09/23 23:21:24;;;;;;;7.88;7.03;;;;;;;;;;12980096;22;20027;-83
2022/09/23 23:26:33;;;;;;;7.77;7.07;;;;;;;;;;12951246;22;20740;-84
2022/09/23 23:31:33;;;;;;;8.50;7.53;;;;;;;;;;12937096;22;20027;-83
2022/09/23 23:36:34;;;;;;;9.05;7.55;;;;;;;;;;12993243;22;20097;-82
2022/09/23 23:41:35;;;;;;;9.73;8.00;;;;;;;;;;12987941;22;20015;-83
2022/09/23 23:46:35;;;;;;;8.70;6.75;;;;;;;;;;12991909;22;20012;-82
2022/09/23 23:51:36;;;;;;;9.40;7.45;;;;;;;;;;12988215;22;20489;-80
2022/09/23 23:56:37;;;;;;;8.93;6.85;;;;;;;;;;12983707;22;20190;-81
